createdAt,value
2019-01-29T00:00:37.578Z,9.50
2019-01-29T00:01:37.557Z,9.90
2019-01-29T00:02:37.767Z,10.40
2019-01-29T00:03:37.748Z,9.70
2019-01-29T00:04:37.549Z,9.70
2019-01-29T00:05:37.531Z,10.20
2019-01-29T00:06:37.526Z,9.50
2019-01-29T00:07:37.515Z,9.40
2019-01-29T00:08:37.514Z,9.60
2019-01-29T00:09:37.528Z,9.30
2019-01-29T00:10:37.499Z,9.00
2019-01-29T00:11:37.503Z,9.50
2019-01-29T00:12:37.543Z,10.20
2019-01-29T00:13:37.695Z,9.50
2019-01-29T00:14:37.472Z,8.90
2019-01-29T00:15:37.468Z,9.20
2019-01-29T00:16:37.460Z,9.70
2019-01-29T00:17:37.455Z,9.60
2019-01-29T00:18:37.458Z,9.10
2019-01-29T00:19:37.441Z,9.80
2019-01-29T00:20:37.433Z,9.40
2019-01-29T00:21:37.629Z,9.10
2019-01-29T00:22:37.622Z,10.00
2019-01-29T00:23:37.613Z,9.60
2019-01-29T00:24:37.408Z,9.60
2019-01-29T00:25:37.416Z,9.20
2019-01-29T00:26:37.397Z,9.60
2019-01-29T00:27:37.387Z,9.40
2019-01-29T00:28:37.391Z,9.30
2019-01-29T00:29:37.379Z,9.60
2019-01-29T00:30:37.581Z,9.10
2019-01-29T00:31:37.572Z,9.40
2019-01-29T00:32:37.352Z,9.50
2019-01-29T00:33:37.340Z,9.70
2019-01-29T00:34:37.333Z,9.60
2019-01-29T00:35:37.339Z,8.90
2019-01-29T00:36:37.342Z,9.50
2019-01-29T00:37:37.313Z,9.90
2019-01-29T00:38:37.312Z,9.20
2019-01-29T00:39:37.314Z,9.30
2019-01-29T00:40:37.299Z,9.20
2019-01-29T00:41:37.300Z,9.20
2019-01-29T00:42:37.301Z,10.20
2019-01-29T00:43:37.283Z,9.70
2019-01-29T00:44:37.491Z,9.20
2019-01-29T00:45:37.264Z,9.30
2019-01-29T00:46:37.265Z,9.80
2019-01-29T00:47:37.248Z,9.80
2019-01-29T00:48:37.255Z,9.00
2019-01-29T00:49:37.435Z,9.40
2019-01-29T00:50:37.228Z,9.50
2019-01-29T00:51:37.220Z,9.30
2019-01-29T00:52:41.983Z,9.80
2019-01-29T00:53:37.209Z,9.40
2019-01-29T00:54:37.217Z,9.30
2019-01-29T00:55:37.201Z,9.30
2019-01-29T00:56:37.213Z,9.50
2019-01-29T00:57:37.200Z,9.80
2019-01-29T00:58:37.178Z,9.80
2019-01-29T00:59:37.174Z,10.00
2019-01-29T01:00:37.368Z,9.70
2019-01-29T01:01:37.160Z,9.90
2019-01-29T01:02:37.163Z,9.70
2019-01-29T01:03:37.156Z,9.80
2019-01-29T01:04:37.162Z,10.10
2019-01-29T01:05:37.144Z,10.30
2019-01-29T01:06:37.128Z,9.30
2019-01-29T01:07:37.135Z,9.20
2019-01-29T01:08:38.442Z,9.50
2019-01-29T01:09:37.110Z,9.70
2019-01-29T01:10:37.111Z,9.40
2019-01-29T01:11:37.104Z,9.80
2019-01-29T01:12:37.081Z,9.60
2019-01-29T01:13:37.086Z,9.80
2019-01-29T01:14:37.084Z,9.70
2019-01-29T01:15:37.064Z,10.10
2019-01-29T01:16:37.086Z,9.40
2019-01-29T01:17:37.057Z,9.80
2019-01-29T01:18:37.053Z,10.20
2019-01-29T01:19:37.036Z,10.30
2019-01-29T01:20:37.249Z,10.00
2019-01-29T01:21:37.235Z,8.90
2019-01-29T01:22:37.250Z,9.70
2019-01-29T01:23:37.008Z,10.10
2019-01-29T01:24:37.222Z,10.00
2019-01-29T01:25:37.207Z,10.00
2019-01-29T01:26:36.998Z,10.10
2019-01-29T01:27:36.982Z,9.90
2019-01-29T01:28:37.200Z,9.60
2019-01-29T01:29:37.176Z,9.90
2019-01-29T01:30:37.001Z,9.60
2019-01-29T01:31:36.977Z,9.70
2019-01-29T01:32:36.970Z,9.90
2019-01-29T01:33:36.949Z,9.60
2019-01-29T01:34:37.137Z,10.10
2019-01-29T01:35:37.131Z,9.70
2019-01-29T01:36:36.929Z,10.20
2019-01-29T01:37:36.925Z,10.00
2019-01-29T01:38:36.937Z,9.50
2019-01-29T01:39:37.107Z,9.40
2019-01-29T01:40:36.900Z,10.00
2019-01-29T01:41:36.893Z,9.40
2019-01-29T01:42:36.885Z,9.70
2019-01-29T01:43:36.885Z,10.70
2019-01-29T01:44:36.876Z,10.60
2019-01-29T01:45:36.880Z,10.20
2019-01-29T01:46:36.872Z,10.30
2019-01-29T01:47:37.065Z,11.10
2019-01-29T01:48:36.848Z,11.30
2019-01-29T01:49:36.843Z,11.80
2019-01-29T01:50:36.847Z,12.30
2019-01-29T01:51:36.841Z,11.40
2019-01-29T01:52:36.826Z,12.70
2019-01-29T01:53:36.819Z,12.50
2019-01-29T01:54:36.813Z,13.10
2019-01-29T01:55:37.020Z,13.00
2019-01-29T01:56:36.826Z,12.90
2019-01-29T01:57:36.790Z,13.00
2019-01-29T01:58:36.795Z,12.40
2019-01-29T01:59:36.997Z,12.20
2019-01-29T02:00:36.786Z,13.40
2019-01-29T02:01:36.792Z,14.10
2019-01-29T02:02:36.781Z,15.80
2019-01-29T02:03:36.755Z,15.50
2019-01-29T02:04:36.758Z,15.10
2019-01-29T02:05:36.941Z,16.20
2019-01-29T02:06:36.737Z,17.10
2019-01-29T02:07:36.727Z,16.50
2019-01-29T02:08:36.738Z,17.30
2019-01-29T02:09:36.706Z,18.20
2019-01-29T02:10:36.719Z,18.00
2019-01-29T02:11:36.713Z,18.30
2019-01-29T02:12:36.704Z,18.80
2019-01-29T02:13:36.708Z,19.50
2019-01-29T02:14:36.694Z,20.00
2019-01-29T02:15:36.681Z,20.10
2019-01-29T02:16:36.669Z,21.10
2019-01-29T02:17:36.672Z,20.30
2019-01-29T02:18:36.668Z,21.80
2019-01-29T02:19:36.642Z,21.80
2019-01-29T02:20:36.640Z,22.30
2019-01-29T02:21:36.626Z,21.10
2019-01-29T02:22:36.625Z,21.20
2019-01-29T02:23:36.634Z,22.80
2019-01-29T02:24:36.612Z,23.00
2019-01-29T02:25:36.606Z,23.10
2019-01-29T02:26:36.816Z,21.80
2019-01-29T02:27:36.591Z,22.70
2019-01-29T02:28:36.600Z,22.50
2019-01-29T02:29:36.591Z,22.70
2019-01-29T02:30:36.776Z,23.10
2019-01-29T02:31:36.568Z,22.80
2019-01-29T02:32:36.563Z,23.20
2019-01-29T02:33:36.758Z,23.70
2019-01-29T02:34:36.554Z,22.50
2019-01-29T02:35:36.544Z,23.60
2019-01-29T02:36:36.540Z,23.60
2019-01-29T02:37:36.543Z,23.20
2019-01-29T02:38:36.516Z,23.70
2019-01-29T02:39:36.527Z,23.10
2019-01-29T02:40:36.503Z,23.60
2019-01-29T02:41:36.513Z,23.60
2019-01-29T02:42:36.501Z,23.00
2019-01-29T02:43:36.697Z,24.60
2019-01-29T02:44:37.163Z,22.90
2019-01-29T02:45:36.473Z,23.40
2019-01-29T02:46:36.666Z,23.20
2019-01-29T02:47:36.454Z,22.80
2019-01-29T02:48:36.474Z,22.40
2019-01-29T02:49:36.672Z,22.30
2019-01-29T02:50:36.439Z,22.90
2019-01-29T02:51:36.634Z,22.70
2019-01-29T02:52:36.441Z,23.30
2019-01-29T02:53:36.432Z,23.50
2019-01-29T02:54:36.614Z,22.60
2019-01-29T02:56:02.098Z,24.00
2019-01-29T02:56:36.433Z,24.40
2019-01-29T02:57:36.399Z,22.40
2019-01-29T02:58:36.396Z,24.30
2019-01-29T02:59:36.399Z,23.40
2019-01-29T03:00:36.388Z,22.70
2019-01-29T03:01:36.375Z,23.60
2019-01-29T03:02:36.421Z,23.90
2019-01-29T03:03:36.359Z,25.20
2019-01-29T03:04:36.354Z,24.90
2019-01-29T03:06:09.768Z,23.90
2019-01-29T03:06:36.354Z,24.00
2019-01-29T03:07:36.343Z,24.40
2019-01-29T03:09:09.545Z,24.30
2019-01-29T03:10:09.783Z,25.50
2019-01-29T03:12:20.273Z,26.40
2019-01-29T03:13:20.254Z,25.40
2019-01-29T03:14:53.504Z,26.60
2019-01-29T03:15:53.654Z,25.90
2019-01-29T03:16:53.661Z,26.10
2019-01-29T03:17:53.450Z,26.90
2019-01-29T03:18:20.218Z,27.00
2019-01-29T03:19:20.196Z,27.40
2019-01-29T03:20:20.206Z,27.20
2019-01-29T03:21:20.197Z,27.40
2019-01-29T03:22:20.177Z,28.30
2019-01-29T03:23:27.261Z,28.40
2019-01-29T03:24:20.162Z,30.20
2019-01-29T03:25:20.373Z,28.20
2019-01-29T03:26:20.151Z,30.00
2019-01-29T03:27:20.345Z,28.80
2019-01-29T03:28:20.154Z,29.80
2019-01-29T03:29:20.131Z,29.00
2019-01-29T03:30:20.145Z,29.40
2019-01-29T03:31:20.116Z,30.20
2019-01-29T03:32:20.162Z,30.00
2019-01-29T03:33:20.133Z,30.10
2019-01-29T03:34:20.110Z,30.40
2019-01-29T03:35:20.091Z,29.30
2019-01-29T03:36:20.299Z,30.00
2019-01-29T03:37:20.078Z,29.50
2019-01-29T03:38:20.077Z,30.00
2019-01-29T03:39:20.084Z,29.90
2019-01-29T03:40:20.061Z,29.90
2019-01-29T03:41:20.070Z,30.20
2019-01-29T03:42:20.246Z,31.20
2019-01-29T03:43:20.049Z,30.30
2019-01-29T03:44:20.028Z,29.90
2019-01-29T03:45:20.069Z,30.00
2019-01-29T03:46:20.026Z,29.60
2019-01-29T03:47:20.210Z,29.60
2019-01-29T03:48:20.002Z,30.20
2019-01-29T03:49:20.214Z,30.80
2019-01-29T03:50:19.993Z,30.60
2019-01-29T03:51:19.981Z,29.60
2019-01-29T03:52:19.975Z,30.30
2019-01-29T03:53:19.982Z,30.80
2019-01-29T03:54:19.978Z,30.20
2019-01-29T03:55:19.981Z,30.10
2019-01-29T03:56:19.979Z,30.20
2019-01-29T03:57:19.944Z,30.50
2019-01-29T03:58:19.948Z,29.20
2019-01-29T03:59:19.928Z,30.40
2019-01-29T04:00:19.934Z,30.30
2019-01-29T04:01:19.928Z,30.20
2019-01-29T04:02:19.920Z,29.90
2019-01-29T04:03:19.903Z,30.30
2019-01-29T04:04:19.926Z,29.50
2019-01-29T04:05:19.891Z,28.60
2019-01-29T04:06:19.897Z,28.50
2019-01-29T04:07:19.874Z,28.30
2019-01-29T04:08:20.073Z,29.20
2019-01-29T04:09:19.863Z,28.40
2019-01-29T04:10:19.870Z,28.80
2019-01-29T04:11:19.851Z,28.30
2019-01-29T04:12:19.844Z,28.50
2019-01-29T04:13:19.853Z,28.20
2019-01-29T04:14:19.842Z,28.70
2019-01-29T04:15:19.823Z,28.80
2019-01-29T04:16:20.018Z,28.50
2019-01-29T04:17:19.812Z,29.50
2019-01-29T04:18:19.805Z,27.90
2019-01-29T04:19:19.810Z,29.30
2019-01-29T04:20:19.794Z,28.90
2019-01-29T04:21:19.796Z,28.80
2019-01-29T04:22:19.778Z,28.90
2019-01-29T04:23:19.781Z,28.40
2019-01-29T04:24:19.767Z,28.80
2019-01-29T04:25:19.759Z,29.70
2019-01-29T04:26:19.786Z,28.90
2019-01-29T04:27:19.747Z,28.60
2019-01-29T04:28:19.761Z,29.60
2019-01-29T04:29:19.746Z,28.60
2019-01-29T04:30:19.738Z,27.90
2019-01-29T04:31:19.739Z,29.90
2019-01-29T04:32:19.915Z,28.30
2019-01-29T04:33:19.718Z,29.90
2019-01-29T04:34:19.717Z,28.40
2019-01-29T04:35:19.905Z,28.80
2019-01-29T04:36:19.691Z,28.90
2019-01-29T04:37:19.703Z,29.30
2019-01-29T04:38:19.691Z,29.30
2019-01-29T04:39:19.877Z,28.70
2019-01-29T04:40:19.887Z,27.20
2019-01-29T04:41:19.665Z,27.20
2019-01-29T04:42:19.851Z,27.50
2019-01-29T04:43:19.641Z,28.00
2019-01-29T04:44:19.838Z,26.40
2019-01-29T04:45:19.628Z,27.00
2019-01-29T04:46:19.622Z,28.10
2019-01-29T04:47:19.626Z,27.60
2019-01-29T04:48:19.618Z,27.60
2019-01-29T04:49:19.620Z,27.10
2019-01-29T04:50:19.597Z,26.90
2019-01-29T04:51:19.600Z,25.90
2019-01-29T04:52:19.605Z,26.10
2019-01-29T04:53:19.780Z,26.40
2019-01-29T04:54:19.570Z,26.30
2019-01-29T04:55:19.586Z,27.70
2019-01-29T04:56:19.777Z,25.60
2019-01-29T04:57:19.551Z,25.80
2019-01-29T04:58:19.546Z,25.90
2019-01-29T04:59:19.539Z,24.60
2019-01-29T05:00:19.547Z,24.00
2019-01-29T05:01:19.527Z,25.30
2019-01-29T05:02:19.536Z,24.70
2019-01-29T05:03:19.527Z,23.30
2019-01-29T05:04:19.518Z,23.50
2019-01-29T05:05:19.505Z,23.90
2019-01-29T05:06:19.493Z,23.00
2019-01-29T05:07:19.486Z,22.30
2019-01-29T05:08:19.492Z,22.60
2019-01-29T05:09:19.485Z,22.80
2019-01-29T05:10:19.510Z,24.10
2019-01-29T05:11:19.459Z,23.50
2019-01-29T05:12:19.516Z,22.60
2019-01-29T05:13:19.674Z,23.00
2019-01-29T05:14:19.647Z,23.80
2019-01-29T05:15:19.603Z,23.40
2019-01-29T05:16:19.645Z,23.20
2019-01-29T05:17:19.426Z,24.00
2019-01-29T05:18:19.433Z,24.30
2019-01-29T05:19:19.417Z,23.60
2019-01-29T05:20:19.452Z,23.80
2019-01-29T05:21:19.423Z,24.70
2019-01-29T05:22:19.396Z,23.70
2019-01-29T05:23:19.386Z,24.20
2019-01-29T05:24:19.390Z,23.70
2019-01-29T05:25:19.383Z,24.90
2019-01-29T05:26:19.379Z,24.10
2019-01-29T05:27:19.394Z,25.40
2019-01-29T05:28:19.373Z,25.00
2019-01-29T05:29:19.350Z,25.60
2019-01-29T05:30:20.752Z,24.10
2019-01-29T05:31:19.538Z,25.30
2019-01-29T05:32:19.332Z,25.90
2019-01-29T05:33:19.326Z,26.10
2019-01-29T05:34:19.327Z,25.00
2019-01-29T05:35:19.313Z,26.20
2019-01-29T05:36:19.307Z,25.80
2019-01-29T05:37:19.300Z,25.30
2019-01-29T05:38:19.311Z,25.60
2019-01-29T05:39:19.314Z,26.40
2019-01-29T05:40:19.297Z,27.50
2019-01-29T05:41:19.285Z,26.50
2019-01-29T05:42:19.282Z,27.30
2019-01-29T05:43:19.271Z,26.60
2019-01-29T05:44:19.470Z,26.10
2019-01-29T05:45:19.250Z,27.20
2019-01-29T05:46:19.243Z,26.50
2019-01-29T05:47:19.241Z,26.70
2019-01-29T05:48:19.234Z,27.00
2019-01-29T05:49:19.223Z,27.80
2019-01-29T05:50:19.218Z,27.70
2019-01-29T05:51:19.207Z,27.10
2019-01-29T05:52:19.212Z,28.30
2019-01-29T05:53:19.199Z,28.40
2019-01-29T05:54:19.192Z,28.30
2019-01-29T05:55:19.191Z,28.30
2019-01-29T05:56:19.176Z,28.50
2019-01-29T05:57:19.170Z,28.40
2019-01-29T05:58:19.163Z,28.30
2019-01-29T05:59:19.157Z,29.20
2019-01-29T06:00:19.164Z,28.60
2019-01-29T06:01:19.148Z,30.30
2019-01-29T06:02:19.150Z,31.00
2019-01-29T06:03:19.132Z,30.50
2019-01-29T06:04:19.125Z,30.60
2019-01-29T06:05:19.126Z,30.90
2019-01-29T06:06:19.114Z,30.00
2019-01-29T06:07:19.115Z,30.10
2019-01-29T06:08:19.097Z,31.20
2019-01-29T06:09:19.093Z,31.60
2019-01-29T06:10:19.086Z,31.30
2019-01-29T06:11:19.099Z,30.50
2019-01-29T06:12:19.277Z,32.00
2019-01-29T06:13:19.268Z,32.40
2019-01-29T06:14:19.265Z,31.70
2019-01-29T06:15:19.058Z,31.20
2019-01-29T06:16:19.251Z,30.90
2019-01-29T06:17:27.207Z,30.70
2019-01-29T06:18:19.040Z,30.30
2019-01-29T06:19:19.040Z,31.00
2019-01-29T06:20:19.072Z,31.00
2019-01-29T06:21:19.230Z,29.80
2019-01-29T06:22:19.288Z,30.70
2019-01-29T06:23:19.235Z,32.00
2019-01-29T06:24:25.478Z,31.20
2019-01-29T06:25:19.027Z,33.30
2019-01-29T06:26:19.002Z,31.50
2019-01-29T06:27:19.182Z,31.10
2019-01-29T06:28:18.981Z,31.60
2019-01-29T06:29:18.979Z,31.90
2019-01-29T06:30:18.974Z,32.10
2019-01-29T06:31:19.006Z,32.90
2019-01-29T06:32:19.247Z,32.00
2019-01-29T06:33:18.941Z,33.00
2019-01-29T06:34:18.960Z,32.60
2019-01-29T06:35:18.928Z,32.20
2019-01-29T06:36:18.933Z,31.70
2019-01-29T06:37:18.919Z,31.90
2019-01-29T06:38:19.112Z,32.40
2019-01-29T06:39:18.951Z,32.10
2019-01-29T06:40:18.898Z,32.40
2019-01-29T06:41:19.098Z,31.90
2019-01-29T06:42:19.093Z,31.90
2019-01-29T06:43:18.881Z,29.90
2019-01-29T06:44:19.079Z,31.20
2019-01-29T06:45:18.876Z,31.80
2019-01-29T06:46:18.862Z,32.20
2019-01-29T06:47:18.858Z,32.50
2019-01-29T06:48:19.049Z,32.20
2019-01-29T06:49:18.858Z,32.20
2019-01-29T06:50:18.835Z,30.80
2019-01-29T06:51:18.853Z,32.50
2019-01-29T06:52:18.827Z,31.20
2019-01-29T06:53:19.022Z,32.00
2019-01-29T06:54:18.812Z,33.00
2019-01-29T06:55:18.812Z,32.40
2019-01-29T06:56:19.108Z,33.50
2019-01-29T06:57:18.797Z,32.80
2019-01-29T06:58:18.787Z,32.70
2019-01-29T06:59:18.794Z,31.60
2019-01-29T07:00:18.794Z,32.40
2019-01-29T07:01:18.774Z,32.50
2019-01-29T07:02:18.968Z,32.70
2019-01-29T07:03:18.771Z,32.40
2019-01-29T07:04:18.762Z,31.50
2019-01-29T07:05:18.743Z,33.10
2019-01-29T07:06:18.748Z,32.60
2019-01-29T07:07:18.934Z,33.00
2019-01-29T07:08:18.727Z,33.50
2019-01-29T07:09:18.718Z,33.30
2019-01-29T07:10:18.735Z,32.90
2019-01-29T07:11:18.705Z,33.20
2019-01-29T07:12:18.902Z,32.30
2019-01-29T07:13:18.897Z,33.10
2019-01-29T07:14:18.691Z,32.80
2019-01-29T07:15:18.683Z,33.50
2019-01-29T07:16:18.677Z,32.60
2019-01-29T07:17:18.672Z,32.70
2019-01-29T07:18:18.675Z,32.80
2019-01-29T07:19:18.669Z,31.00
2019-01-29T07:20:18.655Z,32.20
2019-01-29T07:21:18.643Z,31.20
2019-01-29T07:22:18.657Z,31.60
2019-01-29T07:23:18.671Z,31.10
2019-01-29T07:24:18.641Z,31.90
2019-01-29T07:25:18.636Z,30.80
2019-01-29T07:26:18.643Z,31.10
2019-01-29T07:27:18.838Z,30.70
2019-01-29T07:28:18.631Z,31.10
2019-01-29T07:29:18.795Z,30.60
2019-01-29T07:30:18.591Z,30.60
2019-01-29T07:31:18.590Z,30.70
2019-01-29T07:32:18.575Z,29.30
2019-01-29T07:33:18.769Z,29.70
2019-01-29T07:34:18.563Z,29.20
2019-01-29T07:35:18.553Z,31.20
2019-01-29T07:36:18.548Z,30.30
2019-01-29T07:37:22.058Z,29.70
2019-01-29T07:38:18.538Z,29.50
2019-01-29T07:39:18.530Z,28.90
2019-01-29T07:40:18.522Z,29.10
2019-01-29T07:41:18.521Z,29.10
2019-01-29T07:42:18.511Z,29.00
2019-01-29T07:43:18.501Z,28.10
2019-01-29T07:44:18.711Z,28.70
2019-01-29T07:45:18.491Z,27.80
2019-01-29T07:46:18.484Z,28.40
2019-01-29T07:47:18.477Z,28.30
2019-01-29T07:48:18.471Z,28.30
2019-01-29T07:49:18.467Z,27.30
2019-01-29T07:50:18.460Z,27.60
2019-01-29T07:51:18.669Z,27.10
2019-01-29T07:52:18.447Z,26.60
2019-01-29T07:53:18.446Z,27.80
2019-01-29T07:54:18.433Z,26.90
2019-01-29T07:55:18.426Z,27.20
2019-01-29T07:56:18.419Z,26.60
2019-01-29T07:57:18.416Z,26.70
2019-01-29T07:58:18.406Z,26.80
2019-01-29T07:59:32.532Z,26.80
2019-01-29T08:00:18.392Z,26.80
2019-01-29T08:01:18.600Z,25.50
2019-01-29T08:02:18.400Z,26.00
2019-01-29T08:03:18.576Z,25.60
2019-01-29T08:04:18.366Z,26.60
2019-01-29T08:05:18.376Z,25.40
2019-01-29T08:06:18.367Z,25.90
2019-01-29T08:07:18.350Z,24.30
2019-01-29T08:08:18.544Z,25.80
2019-01-29T08:09:18.335Z,26.00
2019-01-29T08:10:18.346Z,25.20
2019-01-29T08:11:18.324Z,24.70
2019-01-29T08:12:18.319Z,26.30
2019-01-29T08:13:18.309Z,25.30
2019-01-29T08:14:18.517Z,25.40
2019-01-29T08:15:18.297Z,26.20
2019-01-29T08:16:18.303Z,25.80
2019-01-29T08:17:18.288Z,25.40
2019-01-29T08:18:18.341Z,23.80
2019-01-29T08:19:18.287Z,24.50
2019-01-29T08:20:18.269Z,24.80
2019-01-29T08:21:18.276Z,25.10
2019-01-29T08:22:18.468Z,25.00
2019-01-29T08:23:18.248Z,24.70
2019-01-29T08:24:18.447Z,24.30
2019-01-29T08:25:18.448Z,25.20
2019-01-29T08:26:18.243Z,25.70
2019-01-29T08:27:18.235Z,25.20
2019-01-29T08:28:18.231Z,25.10
2019-01-29T08:29:18.425Z,26.10
2019-01-29T08:30:18.420Z,25.60
2019-01-29T08:31:18.213Z,25.10
2019-01-29T08:32:18.199Z,25.60
2019-01-29T08:33:18.187Z,25.50
2019-01-29T08:34:18.421Z,25.40
2019-01-29T08:35:18.192Z,24.90
2019-01-29T08:36:18.167Z,25.30
2019-01-29T08:37:18.162Z,25.20
2019-01-29T08:38:18.158Z,24.30
2019-01-29T08:39:18.149Z,24.50
2019-01-29T08:40:18.358Z,25.50
2019-01-29T08:41:18.140Z,24.80
2019-01-29T08:42:18.134Z,24.20
2019-01-29T08:43:18.141Z,24.80
2019-01-29T08:44:18.124Z,24.20
2019-01-29T08:45:18.136Z,24.40
2019-01-29T08:46:18.124Z,24.90
2019-01-29T08:47:18.111Z,24.10
2019-01-29T08:48:18.313Z,24.40
2019-01-29T08:49:18.292Z,23.10
2019-01-29T08:50:18.097Z,23.00
2019-01-29T08:51:18.292Z,23.90
2019-01-29T08:52:18.075Z,23.90
2019-01-29T08:53:18.081Z,24.20
2019-01-29T08:54:18.060Z,24.00
2019-01-29T08:55:18.067Z,24.80
2019-01-29T08:56:18.049Z,24.50
2019-01-29T08:57:18.057Z,23.90
2019-01-29T08:58:18.038Z,23.80
2019-01-29T08:59:18.034Z,22.90
2019-01-29T09:00:18.027Z,23.20
2019-01-29T09:01:18.020Z,23.00
2019-01-29T09:02:18.015Z,23.80
2019-01-29T09:03:18.031Z,24.30
2019-01-29T09:04:18.000Z,24.50
2019-01-29T09:05:17.994Z,23.70
2019-01-29T09:06:18.009Z,23.90
2019-01-29T09:07:17.993Z,23.70
2019-01-29T09:08:17.978Z,23.30
2019-01-29T09:09:18.185Z,23.80
2019-01-29T09:10:17.970Z,24.90
2019-01-29T09:11:17.959Z,23.70
2019-01-29T09:12:17.954Z,23.10
2019-01-29T09:13:17.950Z,23.10
2019-01-29T09:14:17.984Z,24.80
2019-01-29T09:15:17.948Z,23.40
2019-01-29T09:16:17.945Z,24.00
2019-01-29T09:17:17.939Z,24.00
2019-01-29T09:18:17.942Z,23.30
2019-01-29T09:19:17.914Z,24.10
2019-01-29T09:20:17.937Z,23.90
2019-01-29T09:21:17.902Z,24.60
2019-01-29T09:22:17.920Z,23.70
2019-01-29T09:23:17.902Z,23.40
2019-01-29T09:24:17.886Z,22.80
2019-01-29T09:25:20.893Z,22.80
2019-01-29T09:26:17.886Z,22.60
2019-01-29T09:27:17.868Z,23.50
2019-01-29T09:28:18.617Z,22.90
2019-01-29T09:29:18.027Z,23.80
2019-01-29T09:30:17.882Z,22.80
2019-01-29T09:31:18.062Z,24.90
2019-01-29T09:32:17.866Z,24.20
2019-01-29T09:33:17.850Z,24.80
2019-01-29T09:34:18.054Z,23.30
2019-01-29T09:35:17.840Z,24.60
2019-01-29T09:36:17.841Z,23.10
2019-01-29T09:37:17.827Z,25.20
2019-01-29T09:38:18.024Z,25.40
2019-01-29T09:39:17.811Z,23.30
2019-01-29T09:40:17.811Z,24.20
2019-01-29T09:41:17.793Z,23.70
2019-01-29T09:42:17.808Z,23.40
2019-01-29T09:43:17.802Z,24.10
2019-01-29T09:44:17.773Z,22.80
2019-01-29T09:45:17.786Z,23.80
2019-01-29T09:46:17.976Z,22.80
2019-01-29T09:47:17.767Z,23.50
2019-01-29T09:48:17.752Z,23.50
2019-01-29T09:49:17.752Z,24.40
2019-01-29T09:50:17.739Z,23.50
2019-01-29T09:51:17.951Z,23.20
2019-01-29T09:52:17.932Z,22.40
2019-01-29T09:53:17.938Z,22.50
2019-01-29T09:54:17.921Z,21.70
2019-01-29T09:55:17.724Z,22.50
2019-01-29T09:56:17.925Z,22.20
2019-01-29T09:57:17.722Z,22.80
2019-01-29T09:58:17.704Z,22.50
2019-01-29T09:59:17.910Z,22.50
2019-01-29T10:00:17.690Z,23.10
2019-01-29T10:01:17.692Z,23.70
2019-01-29T10:02:17.672Z,22.80
2019-01-29T10:03:17.666Z,23.20
2019-01-29T10:04:17.690Z,21.60
2019-01-29T10:05:17.656Z,22.70
2019-01-29T10:06:17.722Z,22.70
2019-01-29T10:07:17.651Z,22.80
2019-01-29T10:08:17.669Z,22.90
2019-01-29T10:09:17.636Z,22.40
2019-01-29T10:10:17.632Z,22.50
2019-01-29T10:11:17.623Z,21.80
2019-01-29T10:12:17.619Z,22.40
2019-01-29T10:13:17.611Z,22.60
2019-01-29T10:14:17.622Z,22.10
2019-01-29T10:15:17.615Z,22.00
2019-01-29T10:16:17.606Z,22.50
2019-01-29T10:17:17.604Z,22.60
2019-01-29T10:18:17.588Z,23.60
2019-01-29T10:19:17.578Z,21.80
2019-01-29T10:20:17.582Z,23.10
2019-01-29T10:21:17.580Z,23.50
2019-01-29T10:22:17.588Z,24.00
2019-01-29T10:23:17.777Z,24.50
2019-01-29T10:24:17.563Z,24.40
2019-01-29T10:25:17.547Z,23.80
2019-01-29T10:26:17.550Z,22.50
2019-01-29T10:27:17.750Z,22.70
2019-01-29T10:28:17.529Z,23.20
2019-01-29T10:29:17.538Z,22.80
2019-01-29T10:30:17.532Z,21.60
2019-01-29T10:31:17.513Z,21.20
2019-01-29T10:32:17.723Z,22.20
2019-01-29T10:33:17.501Z,22.30
2019-01-29T10:34:17.498Z,22.30
2019-01-29T10:35:17.510Z,22.30
2019-01-29T10:36:17.697Z,21.00
2019-01-29T10:37:17.493Z,20.70
2019-01-29T10:38:17.474Z,20.50
2019-01-29T10:39:17.480Z,19.80
2019-01-29T10:40:17.464Z,19.30
2019-01-29T10:41:17.456Z,17.80
2019-01-29T10:42:17.484Z,18.30
2019-01-29T10:43:17.673Z,18.50
2019-01-29T10:44:17.471Z,18.50
2019-01-29T10:45:17.436Z,18.30
2019-01-29T10:46:17.442Z,17.50
2019-01-29T10:47:17.426Z,18.70
2019-01-29T10:48:17.452Z,18.10
2019-01-29T10:49:17.413Z,18.90
2019-01-29T10:50:17.613Z,17.30
2019-01-29T10:51:17.414Z,17.40
2019-01-29T10:52:17.398Z,17.70
2019-01-29T10:53:17.396Z,17.90
2019-01-29T10:54:17.389Z,16.50
2019-01-29T10:55:17.439Z,16.40
2019-01-29T10:56:17.401Z,15.60
2019-01-29T10:57:17.373Z,15.70
2019-01-29T10:58:17.567Z,13.80
2019-01-29T10:59:17.361Z,12.90
2019-01-29T11:00:17.365Z,13.10
2019-01-29T11:01:17.568Z,13.10
2019-01-29T11:02:17.345Z,12.60
2019-01-29T11:03:17.351Z,12.00
2019-01-29T11:04:17.331Z,11.40
2019-01-29T11:05:17.536Z,11.20
2019-01-29T11:06:17.322Z,11.10
2019-01-29T11:07:17.332Z,11.30
2019-01-29T11:08:17.523Z,10.20
2019-01-29T11:09:24.988Z,10.50
2019-01-29T11:10:17.298Z,9.40
2019-01-29T11:11:17.292Z,9.40
2019-01-29T11:12:17.289Z,9.60
2019-01-29T11:13:17.280Z,9.10
2019-01-29T11:14:17.496Z,8.90
2019-01-29T11:15:17.281Z,8.40
2019-01-29T11:16:17.265Z,7.10
2019-01-29T11:17:17.293Z,7.40
2019-01-29T11:18:17.468Z,6.90
2019-01-29T11:19:17.449Z,6.40
2019-01-29T11:20:17.245Z,6.40
2019-01-29T11:21:17.441Z,5.90
2019-01-29T11:22:17.231Z,5.10
2019-01-29T11:23:17.246Z,4.80
2019-01-29T11:24:17.222Z,5.10
2019-01-29T11:25:17.417Z,5.10
2019-01-29T11:26:17.209Z,5.00
2019-01-29T11:27:17.407Z,4.80
2019-01-29T11:28:17.404Z,4.80
2019-01-29T11:29:17.206Z,5.00
2019-01-29T11:30:17.394Z,5.10
2019-01-29T11:31:17.384Z,5.10
2019-01-29T11:32:17.176Z,4.80
2019-01-29T11:33:17.175Z,4.40
2019-01-29T11:34:17.170Z,4.70
2019-01-29T11:35:17.171Z,4.70
2019-01-29T11:36:17.154Z,5.40
2019-01-29T11:37:17.147Z,5.00
2019-01-29T11:38:17.156Z,4.70
2019-01-29T11:39:17.147Z,5.20
2019-01-29T11:40:17.354Z,5.20
2019-01-29T11:41:17.148Z,4.90
2019-01-29T11:42:17.142Z,5.20
2019-01-29T11:43:17.159Z,5.60
2019-01-29T11:44:17.120Z,4.90
2019-01-29T11:45:17.330Z,4.90
2019-01-29T11:46:17.101Z,5.40
2019-01-29T11:47:17.105Z,5.50
2019-01-29T11:48:17.110Z,5.10
2019-01-29T11:49:17.093Z,5.50
2019-01-29T11:50:17.092Z,4.80
2019-01-29T11:51:17.274Z,5.40
2019-01-29T11:52:17.081Z,5.30
2019-01-29T11:53:17.067Z,5.40
2019-01-29T11:54:17.059Z,5.30
2019-01-29T11:55:17.253Z,4.70
2019-01-29T11:56:17.249Z,5.00
2019-01-29T11:57:17.049Z,4.40
2019-01-29T11:58:17.239Z,4.90
2019-01-29T11:59:17.040Z,4.40
2019-01-29T12:00:17.244Z,3.90
2019-01-29T12:01:17.019Z,4.00
2019-01-29T12:02:17.022Z,3.30
2019-01-29T12:03:17.010Z,3.40
2019-01-29T12:04:17.000Z,3.60
2019-01-29T12:05:17.002Z,3.40
2019-01-29T12:06:16.996Z,3.20
2019-01-29T12:07:16.986Z,3.30
2019-01-29T12:08:17.190Z,3.90
2019-01-29T12:09:16.976Z,3.40
2019-01-29T12:10:17.175Z,3.40
2019-01-29T12:11:17.180Z,3.30
2019-01-29T12:12:16.984Z,3.40
2019-01-29T12:13:17.182Z,3.50
2019-01-29T12:14:16.947Z,3.00
2019-01-29T12:15:16.951Z,3.10
2019-01-29T12:16:16.946Z,2.60
2019-01-29T12:17:17.148Z,2.60
2019-01-29T12:18:16.941Z,3.00
2019-01-29T12:19:16.926Z,3.10
2019-01-29T12:20:16.917Z,2.70
2019-01-29T12:21:16.922Z,2.80
2019-01-29T12:22:16.907Z,2.20
2019-01-29T12:23:16.915Z,2.40
2019-01-29T12:24:16.895Z,2.50
2019-01-29T12:25:16.888Z,2.10
2019-01-29T12:26:16.901Z,2.10
2019-01-29T12:27:16.890Z,2.70
2019-01-29T12:28:16.873Z,2.10
2019-01-29T12:29:17.071Z,2.30
2019-01-29T12:30:16.892Z,1.90
2019-01-29T12:31:16.870Z,2.00
2019-01-29T12:32:17.052Z,1.60
2019-01-29T12:33:16.845Z,1.90
2019-01-29T12:34:16.854Z,1.90
2019-01-29T12:35:16.845Z,2.20
2019-01-29T12:36:16.845Z,2.00
2019-01-29T12:37:16.827Z,2.00
2019-01-29T12:38:17.027Z,2.30
2019-01-29T12:39:16.816Z,2.50
2019-01-29T12:40:16.817Z,2.30
2019-01-29T12:41:17.015Z,2.50
2019-01-29T12:42:16.801Z,2.30
2019-01-29T12:43:16.791Z,2.50
2019-01-29T12:44:16.784Z,2.10
2019-01-29T12:45:16.780Z,2.20
2019-01-29T12:46:16.799Z,2.50
2019-01-29T12:47:16.772Z,2.30
2019-01-29T12:48:16.763Z,2.40
2019-01-29T12:49:16.769Z,2.50
2019-01-29T12:50:16.770Z,2.30
2019-01-29T12:51:16.764Z,2.50
2019-01-29T12:52:16.947Z,2.30
2019-01-29T12:53:16.951Z,2.50
2019-01-29T12:54:16.731Z,2.40
2019-01-29T12:55:16.725Z,2.00
2019-01-29T12:56:21.547Z,1.80
2019-01-29T12:57:16.715Z,1.90
2019-01-29T12:58:16.721Z,1.90
2019-01-29T12:59:16.921Z,2.00
2019-01-29T13:00:16.698Z,1.70